Time;durP1;ratioP1;P1;durP2;ratioP2;P2;SDS_P1;SDS_P2;PMS_P1;PMS_P2;Temp;Humidity;BMP_temperature;BMP_pressure;BME280_temperature;BME280_humidity;BME280_pressure;Samples;Min_cycle;Max_cycle;Signal;HPM_P1;HPM_P2
2022/05/02 00:00:39;;;;;;;20.43;18.93;;;12.00;57.10;;;;;;4993207;28;20189;-86
2022/05/02 00:03:05;;;;;;;20.10;18.50;;;12.00;57.10;;;;;;4993323;28;20423;-85
2022/05/02 00:05:30;;;;;;;25.33;23.53;;;11.90;57.20;;;;;;4993427;28;20432;-85
2022/05/02 00:07:56;;;;;;;23.70;22.30;;;11.90;57.10;;;;;;4992497;28;20420;-84
2022/05/02 00:10:22;;;;;;;24.30;22.60;;;12.00;56.90;;;;;;5010797;28;20546;-85
2022/05/02 00:12:49;;;;;;;24.63;23.03;;;11.90;57.00;;;;;;4992902;28;20408;-85
2022/05/02 00:15:14;;;;;;;24.17;22.57;;;11.90;57.20;;;;;;4992702;28;20478;-85
2022/05/02 00:17:59;;;;;;;23.65;21.95;;;11.90;57.10;;;;;;4992936;28;20818;-84
2022/05/02 00:20:28;;;;;;;25.10;23.60;;;11.90;57.30;;;;;;4992517;28;20223;-87
2022/05/02 00:22:54;;;;;;;26.17;24.37;;;11.90;57.60;;;;;;4993089;28;20470;-84
2022/05/02 00:25:20;;;;;;;25.20;23.50;;;11.70;58.00;;;;;;4992418;28;20498;-84
2022/05/02 00:27:46;;;;;;;24.60;23.00;;;11.60;58.50;;;;;;4993546;28;20889;-84
2022/05/02 00:30:13;;;;;;;22.50;21.07;;;11.70;58.30;;;;;;4992149;28;20466;-85
2022/05/02 00:32:40;;;;;;;24.67;23.17;;;11.70;58.10;;;;;;4998774;28;20411;-85
2022/05/02 00:35:07;;;;;;;22.73;21.43;;;11.50;58.90;;;;;;4998718;28;20508;-85
2022/05/02 00:37:33;;;;;;;24.33;22.77;;;11.40;59.70;;;;;;4999036;28;20418;-85
2022/05/02 00:39:58;;;;;;;25.90;24.20;;;11.50;59.30;;;;;;4998508;28;20420;-85
2022/05/02 00:42:24;;;;;;;24.00;22.47;;;11.60;59.10;;;;;;4998753;28;20492;-81
2022/05/02 00:44:50;;;;;;;21.87;20.47;;;11.50;59.40;;;;;;4998858;28;20231;-81
2022/05/02 00:47:18;;;;;;;24.00;22.50;;;11.50;59.40;;;;;;4998976;28;20188;-85
2022/05/02 00:49:44;;;;;;;25.67;23.83;;;11.50;59.30;;;;;;4998996;28;20263;-85
2022/05/02 00:52:10;;;;;;;25.03;23.47;;;11.60;58.30;;;;;;4999115;28;20922;-85
2022/05/02 00:54:39;;;;;;;24.70;23.13;;;11.60;57.90;;;;;;4999042;28;20424;-81
2022/05/02 00:57:07;;;;;;;24.20;22.60;;;11.60;58.00;;;;;;4999026;28;20675;-84
2022/05/02 00:59:36;;;;;;;24.13;22.67;;;11.40;59.10;;;;;;4998789;28;20420;-84
2022/05/02 01:02:02;;;;;;;24.63;22.93;;;11.50;59.10;;;;;;4998383;28;20447;-84
2022/05/02 01:04:28;;;;;;;25.20;23.50;;;11.50;58.90;;;;;;4998288;28;20423;-85
2022/05/02 01:07:08;;;;;;;23.50;22.10;;;11.40;59.50;;;;;;4999287;28;20473;-85
2022/05/02 01:09:35;;;;;;;24.37;22.77;;;11.30;60.70;;;;;;4999430;28;20203;-85
2022/05/02 01:12:01;;;;;;;23.00;21.37;;;11.40;60.00;;;;;;4998556;28;20404;-82
2022/05/02 01:14:26;;;;;;;24.17;22.53;;;11.40;59.30;;;;;;4998827;28;20424;-81
2022/05/02 01:16:52;;;;;;;22.47;21.03;;;11.50;59.10;;;;;;4998402;28;20184;-82
2022/05/02 01:19:17;;;;;;;23.47;21.97;;;11.50;58.70;;;;;;4998187;28;20184;-81
2022/05/02 01:21:44;;;;;;;21.03;19.73;;;11.60;58.90;;;;;;4998323;28;20180;-81
2022/05/02 01:24:10;;;;;;;24.97;22.87;;;11.50;58.90;;;;;;4998341;28;20229;-81
2022/05/02 01:26:37;;;;;;;24.47;22.87;;;11.50;59.50;;;;;;4998059;28;20945;-81
2022/05/02 01:29:03;;;;;;;24.20;22.47;;;11.40;59.70;;;;;;4998501;28;20200;-81
2022/05/02 01:31:30;;;;;;;25.20;23.53;;;11.50;59.10;;;;;;4997982;28;20999;-81
2022/05/02 01:33:56;;;;;;;24.50;22.67;;;11.30;59.70;;;;;;4998388;28;20409;-80
2022/05/02 01:36:23;;;;;;;23.73;22.17;;;11.20;60.80;;;;;;4998322;28;20782;-81
2022/05/02 01:38:50;;;;;;;23.67;22.20;;;11.30;60.70;;;;;;4998188;28;20920;-81
2022/05/02 01:41:16;;;;;;;24.20;22.70;;;11.40;60.90;;;;;;4998584;28;20920;-81
2022/05/02 01:43:42;;;;;;;23.63;22.13;;;11.30;60.60;;;;;;4995589;28;20516;-81
2022/05/02 01:46:09;;;;;;;23.07;21.63;;;11.30;61.20;;;;;;4995536;28;20459;-81
2022/05/02 01:48:35;;;;;;;24.93;23.43;;;11.40;60.50;;;;;;4994832;28;20506;-81
2022/05/02 01:51:01;;;;;;;25.03;23.20;;;11.30;60.40;;;;;;4994996;28;20412;-81
2022/05/02 01:53:27;;;;;;;22.57;21.17;;;11.50;60.20;;;;;;4995681;28;20413;-81
2022/05/02 01:55:53;;;;;;;24.70;23.00;;;11.50;59.70;;;;;;4995143;28;20487;-81
2022/05/02 01:58:19;;;;;;;23.43;22.00;;;11.40;61.30;;;;;;4995291;28;20173;-80
2022/05/02 02:00:45;;;;;;;23.03;21.23;;;11.30;61.90;;;;;;4994823;28;20845;-80
2022/05/02 02:03:11;;;;;;;23.77;22.10;;;11.20;62.20;;;;;;4994742;28;20459;-80
2022/05/02 02:05:48;;;;;;;25.70;24.20;;;11.30;62.30;;;;;;4994941;28;20424;-80
2022/05/02 02:08:21;;;;;;;25.73;24.03;;;11.40;62.00;;;;;;4994531;28;20173;-81
2022/05/02 02:10:48;;;;;;;25.47;23.87;;;11.50;60.00;;;;;;4993996;28;20443;-81
2022/05/02 02:13:14;;;;;;;25.27;23.60;;;11.60;59.10;;;;;;4994196;28;20973;-80
2022/05/02 02:15:40;;;;;;;27.50;25.60;;;11.60;58.90;;;;;;4994484;28;20409;-80
2022/05/02 02:18:06;;;;;;;23.73;22.30;;;11.60;59.00;;;;;;4994509;28;20923;-80
2022/05/02 02:20:33;;;;;;;25.40;23.90;;;11.60;58.70;;;;;;4994508;28;20572;-80
2022/05/02 02:22:59;;;;;;;22.97;21.60;;;11.60;58.30;;;;;;4994511;28;20783;-80
2022/05/02 02:25:25;;;;;;;25.27;23.57;;;11.60;58.70;;;;;;5011462;28;20412;-80
2022/05/02 02:27:52;;;;;;;23.73;22.07;;;11.60;59.00;;;;;;4994431;28;20412;-81
2022/05/02 02:30:19;;;;;;;24.67;23.07;;;11.40;60.30;;;;;;4993778;28;20201;-80
2022/05/02 02:32:45;;;;;;;25.43;23.83;;;11.30;61.00;;;;;;4993910;28;20819;-81
2022/05/02 02:35:10;;;;;;;23.20;21.77;;;11.20;61.00;;;;;;4994573;28;20807;-81
2022/05/02 02:37:36;;;;;;;24.60;23.10;;;11.00;60.90;;;;;;4994449;28;20424;-81
2022/05/02 02:40:02;;;;;;;25.77;24.17;;;11.10;61.40;;;;;;4994718;28;20189;-81
2022/05/02 02:42:28;;;;;;;24.50;23.00;;;11.10;60.70;;;;;;4994235;28;20216;-81
2022/05/02 02:44:53;;;;;;;26.40;24.80;;;11.10;60.80;;;;;;4994093;28;20782;-81
2022/05/02 02:47:19;;;;;;;25.60;23.90;;;11.20;60.30;;;;;;4993574;28;20278;-82
2022/05/02 02:49:44;;;;;;;26.03;24.53;;;11.30;59.50;;;;;;4993907;28;20213;-81
2022/05/02 02:52:10;;;;;;;24.03;22.57;;;11.20;59.80;;;;;;4994213;28;20268;-81
2022/05/02 02:54:36;;;;;;;26.60;25.10;;;11.30;59.60;;;;;;4992960;28;20177;-81
2022/05/02 02:57:02;;;;;;;26.50;24.90;;;11.20;59.20;;;;;;4993895;28;20180;-81
2022/05/02 02:59:28;;;;;;;26.83;25.23;;;11.20;58.90;;;;;;4993778;28;20178;-81
2022/05/02 03:01:56;;;;;;;24.27;22.40;;;11.00;59.20;;;;;;4993644;28;20444;-81
2022/05/02 03:07:07;;;;;;;25.90;24.40;;;11.10;60.00;;;;;;5011726;28;20559;-81
2022/05/02 03:09:33;;;;;;;27.53;25.80;;;11.30;59.90;;;;;;4993730;28;20823;-79
2022/05/02 03:11:59;;;;;;;26.20;24.60;;;11.40;59.10;;;;;;4993224;28;20412;-79
2022/05/02 03:14:24;;;;;;;25.30;23.60;;;11.50;59.30;;;;;;4993936;28;20559;-79
2022/05/02 03:16:50;;;;;;;24.57;22.97;;;11.50;59.10;;;;;;4993998;28;20272;-79
2022/05/02 03:19:16;;;;;;;23.57;22.07;;;11.50;59.10;;;;;;4994040;28;20178;-79
2022/05/02 03:21:41;;;;;;;25.87;24.27;;;11.50;59.20;;;;;;4993854;28;20728;-80
2022/05/02 03:24:07;;;;;;;25.63;24.03;;;11.40;59.70;;;;;;4994427;28;20184;-81
2022/05/02 03:26:33;;;;;;;25.27;23.60;;;11.30;61.00;;;;;;4994924;28;20173;-80
2022/05/02 03:28:58;;;;;;;26.60;24.90;;;11.30;60.40;;;;;;4994572;28;20199;-80
2022/05/02 03:31:24;;;;;;;25.50;24.07;;;11.20;61.90;;;;;;4994817;28;20705;-80
2022/05/02 03:33:50;;;;;;;26.37;24.77;;;11.10;62.10;;;;;;4994971;28;20180;-81
2022/05/02 03:36:16;;;;;;;27.13;25.30;;;11.10;62.10;;;;;;4994865;28;20177;-79
2022/05/02 03:38:41;;;;;;;26.27;24.47;;;11.00;60.90;;;;;;4995302;28;20876;-79
2022/05/02 03:41:07;;;;;;;27.37;25.57;;;11.00;62.00;;;;;;4994908;28;20447;-81
2022/05/02 03:43:33;;;;;;;27.33;25.53;;;11.20;61.60;;;;;;4995433;28;20177;-80
2022/05/02 03:45:59;;;;;;;26.07;24.37;;;11.40;59.70;;;;;;4995596;28;20726;-79
2022/05/02 03:48:26;;;;;;;26.10;24.27;;;11.50;58.50;;;;;;4995323;28;20177;-80
2022/05/02 03:50:52;;;;;;;27.03;25.27;;;11.50;58.50;;;;;;4995872;28;20420;-80
2022/05/02 03:53:18;;;;;;;25.77;24.17;;;11.30;59.80;;;;;;4995617;28;20404;-80
2022/05/02 03:55:45;;;;;;;26.33;24.63;;;11.20;60.40;;;;;;5013514;28;20408;-79
2022/05/02 03:58:11;;;;;;;27.07;25.37;;;11.30;60.90;;;;;;4995563;28;20603;-80
2022/05/02 04:00:37;;;;;;;27.00;25.30;;;11.30;60.70;;;;;;4995793;28;20795;-79
2022/05/02 04:03:03;;;;;;;27.37;25.63;;;11.10;60.50;;;;;;4995131;28;20421;-80
2022/05/02 04:05:28;;;;;;;27.90;26.20;;;11.10;61.50;;;;;;4994818;28;20235;-80
2022/05/02 04:07:54;;;;;;;27.57;25.87;;;11.10;61.10;;;;;;4995481;28;20591;-80
2022/05/02 04:10:20;;;;;;;26.93;25.33;;;11.10;61.00;;;;;;4995523;28;20292;-80
2022/05/02 04:12:46;;;;;;;27.97;26.07;;;11.30;60.10;;;;;;4995617;28;20196;-79
2022/05/02 04:15:12;;;;;;;27.60;25.80;;;11.30;60.20;;;;;;4995692;28;20177;-80
2022/05/02 04:17:39;;;;;;;28.37;26.60;;;11.50;59.90;;;;;;4995520;28;20412;-80
2022/05/02 04:20:06;;;;;;;23.10;21.33;;;11.50;59.20;;;;;;4995715;28;20420;-79
2022/05/02 04:22:34;;;;;;;26.37;24.57;;;11.30;60.20;;;;;;4995940;28;20515;-79
2022/05/02 04:25:00;;;;;;;26.10;24.43;;;11.40;60.30;;;;;;5052734;23;20529;-83
2022/05/02 04:27:27;;;;;;;29.40;27.70;;;11.20;60.40;;;;;;5005310;22;20416;-79
2022/05/02 04:30:00;;;;;;;27.20;25.60;;;11.30;60.90;;;;;;5035871;23;20255;-82
2022/05/02 04:32:31;;;;;;;24.17;22.57;;;11.30;60.50;;;;;;5012768;28;20412;-79
2022/05/02 04:34:59;;;;;;;24.53;22.93;;;11.30;61.20;;;;;;5011045;28;20417;-80
2022/05/02 04:37:25;;;;;;;25.43;23.83;;;11.10;62.10;;;;;;5011335;28;20499;-80
2022/05/02 04:39:51;;;;;;;27.77;26.17;;;11.20;62.20;;;;;;5010977;28;20583;-81
2022/05/02 04:42:17;;;;;;;29.13;27.03;;;11.30;62.10;;;;;;5011705;28;20180;-80
2022/05/02 04:44:43;;;;;;;29.27;27.33;;;11.40;62.00;;;;;;5011644;28;20506;-80
2022/05/02 04:47:09;;;;;;;27.53;25.97;;;11.50;60.30;;;;;;5011659;28;20461;-79
2022/05/02 04:49:34;;;;;;;26.60;24.70;;;11.60;59.60;;;;;;5011728;28;20205;-80
2022/05/02 04:52:00;;;;;;;28.23;26.33;;;11.50;59.90;;;;;;5011925;28;20243;-85
2022/05/02 04:54:26;;;;;;;29.73;27.90;;;11.60;59.80;;;;;;5011286;28;20170;-79
2022/05/02 04:56:51;;;;;;;24.50;22.50;;;11.50;60.20;;;;;;5011613;28;20173;-79
2022/05/02 04:59:17;;;;;;;24.00;22.20;;;11.40;61.30;;;;;;5011133;28;20177;-79
2022/05/02 05:01:44;;;;;;;23.90;21.93;;;11.60;60.20;;;;;;5011655;28;20209;-79
2022/05/02 05:04:09;;;;;;;24.80;23.20;;;11.50;60.20;;;;;;5010578;28;20185;-77
2022/05/02 05:06:36;;;;;;;29.83;28.13;;;11.40;60.30;;;;;;5010988;28;20482;-79
2022/05/02 05:09:02;;;;;;;29.60;27.47;;;11.40;60.20;;;;;;5010813;28;20213;-78
2022/05/02 05:11:59;;;;;;;27.80;26.00;;;11.30;59.40;;;;;;5010955;28;20459;-78
2022/05/02 05:17:53;;;;;;;24.30;22.70;;;11.40;61.30;;;;;;5012448;28;20439;-78
2022/05/02 05:20:37;;;;;;;29.73;27.73;;;11.50;60.70;;;;;;5013831;28;20830;-79
2022/05/02 05:23:24;;;;;;;29.00;27.10;;;11.40;60.10;;;;;;5011753;28;20841;-78
2022/05/02 05:25:53;;;;;;;28.70;26.80;;;11.30;61.80;;;;;;5012868;28;20833;-78
2022/05/02 05:28:24;;;;;;;30.27;28.17;;;11.50;61.00;;;;;;5013997;28;20774;-79
2022/05/02 05:31:04;;;;;;;26.87;24.90;;;11.50;60.90;;;;;;5028614;28;20808;-78
2022/05/02 05:33:53;;;;;;;25.57;23.83;;;11.40;60.40;;;;;;5021172;28;20507;-78
2022/05/02 05:36:30;;;;;;;30.77;28.67;;;11.40;59.90;;;;;;4997785;28;20451;-78
2022/05/02 05:39:07;;;;;;;30.17;28.17;;;11.30;60.80;;;;;;5013206;28;20412;-82
2022/05/02 05:41:35;;;;;;;32.57;30.17;;;11.50;61.00;;;;;;5006943;28;20423;-84
2022/05/02 05:44:28;;;;;;;26.47;24.60;;;11.50;61.10;;;;;;5013917;28;20420;-84
2022/05/02 05:47:12;;;;;;;31.50;28.60;;;11.50;60.70;;;;;;5021897;28;20421;-84
2022/05/02 05:49:54;;;;;;;30.33;28.33;;;11.40;62.30;;;;;;5014275;28;20455;-84
2022/05/02 05:52:29;;;;;;;32.47;30.23;;;11.50;62.40;;;;;;5014454;28;20417;-84
2022/05/02 05:54:55;;;;;;;34.60;32.30;;;11.50;62.40;;;;;;5015375;28;20446;-85
2022/05/02 05:58:20;;;;;;;32.42;29.95;;;11.60;62.60;;;;;;5013544;28;20419;-84
2022/05/02 06:00:50;;;;;;;29.83;27.73;;;11.60;62.50;;;;;;4977445;28;20302;-84
2022/05/02 06:03:23;;;;;;;29.80;27.50;;;11.60;61.60;;;;;;4967680;28;20508;-85
2022/05/02 06:05:49;;;;;;;30.07;27.87;;;11.60;62.20;;;;;;5012997;28;20482;-83
2022/05/02 06:08:19;;;;;;;29.87;27.63;;;11.80;61.80;;;;;;5029364;28;20424;-84
2022/05/02 06:10:46;;;;;;;28.80;26.50;;;11.80;61.00;;;;;;5029861;28;20252;-84
2022/05/02 06:13:16;;;;;;;28.80;26.50;;;11.80;61.50;;;;;;5029756;28;20883;-85
2022/05/02 06:18:37;;;;;;;28.07;25.97;;;11.70;62.50;;;;;;5014090;28;20424;-85
2022/05/02 06:21:07;;;;;;;28.90;26.70;;;11.80;62.50;;;;;;5030357;28;20417;-84
2022/05/02 06:23:47;;;;;;;29.60;27.40;;;11.70;60.70;;;;;;5030369;28;20408;-84
2022/05/02 06:26:14;;;;;;;29.77;27.57;;;11.80;61.30;;;;;;5030121;28;20412;-84
2022/05/02 06:28:42;;;;;;;35.93;33.53;;;11.90;62.00;;;;;;5029654;28;20424;-85
2022/05/02 06:31:17;;;;;;;30.73;28.40;;;11.90;61.30;;;;;;5013746;28;20419;-84
2022/05/02 06:33:48;;;;;;;30.37;28.17;;;12.00;61.00;;;;;;5013516;28;20408;-85
2022/05/02 06:36:26;;;;;;;31.90;29.50;;;12.00;60.50;;;;;;5013312;28;20829;-84
2022/05/02 06:39:32;;;;;;;39.33;36.47;;;12.10;59.90;;;;;;5013133;28;20416;-84
2022/05/02 06:42:19;;;;;;;29.70;27.60;;;12.10;60.00;;;;;;4993505;28;20438;-84
2022/05/02 06:44:45;;;;;;;28.70;26.80;;;12.20;59.30;;;;;;5013534;28;20491;-84
2022/05/02 06:47:40;;;;;;;29.97;27.60;;;12.20;58.90;;;;;;5000070;28;20416;-84
2022/05/02 06:50:07;;;;;;;32.37;29.97;;;12.20;58.50;;;;;;4997611;28;20251;-79
2022/05/02 06:52:43;;;;;;;32.83;29.93;;;12.30;58.20;;;;;;5013006;28;20823;-79
2022/05/02 06:55:30;;;;;;;32.50;29.83;;;12.40;58.00;;;;;;5012789;28;20774;-79
2022/05/02 06:57:59;;;;;;;31.33;29.07;;;12.30;56.80;;;;;;4996625;28;20416;-79
2022/05/02 07:00:32;;;;;;;31.33;28.90;;;12.40;57.50;;;;;;5012804;28;20428;-79
2022/05/02 07:03:15;;;;;;;31.53;29.13;;;12.40;57.40;;;;;;5012894;28;20412;-79
2022/05/02 07:05:50;;;;;;;32.30;30.10;;;12.50;58.40;;;;;;5012364;28;20833;-80
2022/05/02 07:08:27;;;;;;;34.40;31.43;;;12.50;57.40;;;;;;5012185;28;20412;-79
2022/05/02 07:11:01;;;;;;;32.50;30.10;;;12.60;57.50;;;;;;5014684;28;20451;-79
2022/05/02 07:13:51;;;;;;;32.83;30.43;;;12.60;57.40;;;;;;5011703;28;20746;-79
2022/05/02 07:16:24;;;;;;;30.30;28.10;;;12.70;57.10;;;;;;4997353;28;20428;-80
2022/05/02 07:19:21;;;;;;;39.67;36.97;;;12.80;56.80;;;;;;4992797;28;20568;-79
2022/05/02 07:21:58;;;;;;;34.50;32.00;;;12.90;54.50;;;;;;5001106;28;20534;-79
2022/05/02 07:24:32;;;;;;;33.33;30.83;;;13.00;54.00;;;;;;4996056;28;20737;-81
2022/05/02 07:27:10;;;;;;;32.93;30.77;;;13.00;54.80;;;;;;5012596;28;20423;-79
2022/05/02 07:29:37;;;;;;;32.60;29.97;;;13.00;54.00;;;;;;5011770;28;20471;-80
2022/05/02 07:32:06;;;;;;;32.83;30.53;;;13.00;54.50;;;;;;4994785;28;20419;-80
2022/05/02 07:34:36;;;;;;;34.67;32.07;;;13.10;53.00;;;;;;4983660;28;20420;-80
2022/05/02 07:37:02;;;;;;;32.87;30.43;;;13.20;53.30;;;;;;4995447;28;20412;-81
2022/05/02 07:39:29;;;;;;;32.83;30.53;;;13.30;52.00;;;;;;5009521;28;20439;-80
2022/05/02 07:42:00;;;;;;;34.70;32.30;;;13.30;51.60;;;;;;5000564;28;20178;-80
2022/05/02 07:44:30;;;;;;;34.17;31.60;;;13.30;51.80;;;;;;5010171;28;20417;-80
2022/05/02 07:47:00;;;;;;;33.80;31.30;;;13.30;52.50;;;;;;5009026;28;20427;-81
2022/05/02 07:49:28;;;;;;;31.33;29.00;;;13.40;51.80;;;;;;4995192;28;20796;-81
2022/05/02 07:51:57;;;;;;;32.27;29.77;;;13.50;53.00;;;;;;4995274;28;20440;-81
2022/05/02 07:54:34;;;;;;;34.03;31.63;;;13.60;53.10;;;;;;4994506;28;20495;-81
2022/05/02 07:57:02;;;;;;;34.90;32.40;;;13.60;51.40;;;;;;4994832;28;20843;-80
2022/05/02 07:59:38;;;;;;;31.60;29.07;;;13.60;50.00;;;;;;4994992;28;20424;-80
2022/05/02 08:02:07;;;;;;;38.30;35.60;;;13.60;50.90;;;;;;5009970;28;20419;-80
2022/05/02 08:04:37;;;;;;;33.50;31.20;;;13.70;49.60;;;;;;4994852;28;20271;-80
2022/05/02 08:07:14;;;;;;;35.63;32.93;;;13.80;49.60;;;;;;4995065;28;20447;-80
2022/05/02 08:09:51;;;;;;;33.07;30.80;;;13.80;51.70;;;;;;4994716;28;20467;-81
2022/05/02 08:12:40;;;;;;;34.60;31.83;;;13.80;50.90;;;;;;5008038;28;20927;-81
2022/05/02 08:15:25;;;;;;;31.73;29.63;;;13.90;51.00;;;;;;4996660;28;20405;-81
2022/05/02 08:18:09;;;;;;;33.33;31.10;;;14.00;48.20;;;;;;5008056;28;20404;-81
2022/05/02 08:20:44;;;;;;;31.70;29.60;;;14.00;49.50;;;;;;4992923;28;20798;-81
2022/05/02 08:29:29;;;;;;;32.23;29.80;;;14.20;47.90;;;;;;4992578;28;20476;-81
2022/05/02 08:31:54;;;;;;;33.97;31.70;;;14.30;46.30;;;;;;4998107;28;20447;-81
2022/05/02 08:34:38;;;;;;;32.47;30.37;;;14.40;47.30;;;;;;5010698;28;20863;-81
2022/05/02 08:37:30;;;;;;;34.00;31.73;;;14.40;46.20;;;;;;5010717;28;20174;-81
2022/05/02 08:40:05;;;;;;;35.43;33.00;;;14.40;45.50;;;;;;5011289;28;20459;-82
2022/05/02 08:43:01;;;;;;;33.87;31.43;;;14.50;44.30;;;;;;4994434;28;20418;-82
2022/05/02 08:45:52;;;;;;;33.90;31.80;;;14.60;44.70;;;;;;4994171;28;20420;-81
2022/05/02 08:49:32;;;;;;;34.57;32.37;;;14.60;44.10;;;;;;4994369;28;20424;-81
2022/05/02 08:51:46;;;;;;;32.33;30.30;;;14.70;43.10;;;;;;5012204;28;20420;-80
2022/05/02 08:54:57;;;;;;;32.87;30.77;;;14.70;44.10;;;;;;4998206;28;20415;-80
2022/05/02 08:57:34;;;;;;;34.07;31.97;;;14.70;45.00;;;;;;4982737;28;20500;-80
2022/05/02 09:00:14;;;;;;;33.50;31.13;;;14.80;43.70;;;;;;4998222;28;20428;-80
2022/05/02 09:02:48;;;;;;;33.90;31.70;;;14.90;43.10;;;;;;4998139;28;20423;-80
2022/05/02 09:05:41;;;;;;;31.20;29.30;;;15.00;40.80;;;;;;4998012;28;20416;-80
2022/05/02 09:08:48;;;;;;;31.97;29.33;;;15.10;41.70;;;;;;4998036;28;20420;-81
2022/05/02 09:11:31;;;;;;;31.77;29.80;;;15.00;39.90;;;;;;4954964;28;20517;-81
2022/05/02 09:14:39;;;;;;;31.20;29.23;;;15.20;38.60;;;;;;5008589;28;20424;-81
2022/05/02 09:17:28;;;;;;;32.17;30.33;;;15.20;41.20;;;;;;4998569;28;20919;-81
2022/05/02 09:20:06;;;;;;;34.37;32.03;;;15.30;39.20;;;;;;5000542;28;20785;-80
2022/05/02 09:23:02;;;;;;;33.73;31.43;;;15.30;40.40;;;;;;5014974;28;20416;-81
2022/05/02 09:25:28;;;;;;;33.13;30.87;;;15.40;40.70;;;;;;4999173;28;20930;-80
2022/05/02 09:28:29;;;;;;;32.93;30.40;;;15.50;41.00;;;;;;5015912;28;20412;-87
2022/05/02 09:31:00;;;;;;;32.53;30.43;;;15.50;41.00;;;;;;5031141;28;20597;-81
2022/05/02 09:33:36;;;;;;;32.27;30.40;;;15.70;39.50;;;;;;5031528;28;20753;-87
2022/05/02 09:36:26;;;;;;;31.97;30.20;;;15.70;40.40;;;;;;5014622;28;20416;-79
2022/05/02 09:39:01;;;;;;;34.13;31.70;;;15.70;42.10;;;;;;5030066;28;20831;-81
2022/05/02 09:42:21;;;;;;;34.47;32.07;;;15.90;39.70;;;;;;5029919;28;20422;-82
2022/05/02 09:50:48;;;;;;;29.80;28.00;;;15.70;38.60;;;;;;5008374;28;20478;-82
2022/05/02 09:53:17;;;;;;;30.80;29.10;;;15.70;36.50;;;;;;5023538;28;20420;-81
2022/05/02 09:59:09;;;;;;;30.77;29.07;;;15.80;36.80;;;;;;4995178;28;20417;-80
2022/05/02 10:01:43;;;;;;;29.83;28.13;;;15.90;36.70;;;;;;4991312;28;20425;-81
2022/05/02 10:04:19;;;;;;;32.67;30.70;;;16.00;36.80;;;;;;5011385;28;20923;-81
2022/05/02 10:07:08;;;;;;;29.33;27.60;;;16.20;36.90;;;;;;5012982;28;20477;-81
2022/05/02 10:09:35;;;;;;;30.30;28.60;;;16.10;34.50;;;;;;5012669;28;20831;-81
2022/05/02 10:12:29;;;;;;;29.50;27.53;;;16.10;35.90;;;;;;5029740;28;20435;-81
2022/05/02 10:15:10;;;;;;;30.70;28.70;;;16.30;34.80;;;;;;5013095;28;20424;-81
2022/05/02 10:18:11;;;;;;;28.70;27.20;;;16.30;34.70;;;;;;5013853;28;20416;-80
2022/05/02 10:21:03;;;;;;;29.10;27.60;;;16.40;37.00;;;;;;5004492;28;20926;-81
2022/05/02 10:23:37;;;;;;;30.60;29.00;;;16.50;36.60;;;;;;4993392;28;20425;-80
2022/05/02 10:26:25;;;;;;;30.83;29.33;;;16.30;35.70;;;;;;5009649;28;20424;-81
2022/05/02 10:29:12;;;;;;;28.80;27.20;;;16.20;35.10;;;;;;5009486;28;20476;-81
2022/05/02 10:31:39;;;;;;;30.20;28.40;;;16.20;35.80;;;;;;4993512;28;20464;-81
2022/05/02 10:34:07;;;;;;;28.33;26.93;;;16.20;34.60;;;;;;5009240;28;20424;-81
2022/05/02 10:36:38;;;;;;;28.10;26.50;;;16.30;35.70;;;;;;4996694;28;20424;-80
2022/05/02 10:39:28;;;;;;;29.87;27.53;;;16.30;36.40;;;;;;4996285;28;20416;-80
2022/05/02 10:41:58;;;;;;;27.50;26.10;;;16.40;35.70;;;;;;4996958;28;20424;-80
2022/05/02 10:44:28;;;;;;;27.30;25.87;;;16.40;34.10;;;;;;4996648;28;20424;-81
2022/05/02 10:47:02;;;;;;;29.37;27.77;;;16.30;34.00;;;;;;4998541;28;20432;-80
2022/05/02 10:49:39;;;;;;;28.77;27.17;;;16.30;33.40;;;;;;4997707;28;20487;-81
2022/05/02 10:52:12;;;;;;;28.07;26.67;;;16.30;32.40;;;;;;4996219;28;20435;-81
2022/05/02 10:55:01;;;;;;;28.37;26.83;;;16.20;33.40;;;;;;4996061;28;20900;-81
2022/05/02 10:57:33;;;;;;;28.03;26.60;;;16.20;33.60;;;;;;4995887;28;20455;-81
2022/05/02 11:00:06;;;;;;;28.70;27.30;;;16.20;33.20;;;;;;5012358;28;20478;-81
2022/05/02 11:02:49;;;;;;;28.30;26.60;;;16.30;33.90;;;;;;5011549;28;20449;-81
2022/05/02 11:05:17;;;;;;;27.60;26.20;;;16.30;31.90;;;;;;4996513;28;20972;-80
2022/05/02 11:07:45;;;;;;;27.20;25.53;;;16.30;31.80;;;;;;4996532;28;20428;-81
2022/05/02 11:10:14;;;;;;;27.33;26.03;;;16.40;32.80;;;;;;4996848;28;20439;-81
2022/05/02 11:12:42;;;;;;;26.20;24.90;;;16.40;31.90;;;;;;5013104;28;20424;-82
2022/05/02 11:15:14;;;;;;;26.70;25.40;;;16.50;30.90;;;;;;5011879;28;20503;-81
2022/05/02 11:18:08;;;;;;;26.40;25.20;;;16.70;31.40;;;;;;5012784;28;20447;-82
2022/05/02 11:21:00;;;;;;;25.27;24.13;;;16.90;29.90;;;;;;5014173;28;20961;-80
2022/05/02 11:23:31;;;;;;;27.00;25.80;;;17.00;31.00;;;;;;5013475;28;20471;-81
2022/05/02 11:26:13;;;;;;;26.67;25.47;;;17.10;30.40;;;;;;5012013;28;20428;-82
2022/05/02 11:28:53;;;;;;;26.90;25.70;;;17.10;29.70;;;;;;5003884;28;20492;-82
2022/05/02 11:31:31;;;;;;;26.57;25.27;;;17.20;28.10;;;;;;5011697;28;20523;-82
2022/05/02 11:34:36;;;;;;;26.60;25.40;;;17.30;29.40;;;;;;5019423;28;20432;-82
2022/05/02 11:37:06;;;;;;;26.10;24.90;;;17.30;28.20;;;;;;4989548;28;20428;-82
2022/05/02 11:40:01;;;;;;;25.90;24.80;;;17.30;29.50;;;;;;4995523;28;20454;-80
2022/05/02 11:42:28;;;;;;;25.93;24.73;;;17.40;29.00;;;;;;5009900;28;20437;-81
2022/05/02 11:45:14;;;;;;;26.07;24.57;;;17.50;29.50;;;;;;4995350;28;20424;-82
2022/05/02 11:47:45;;;;;;;26.63;25.07;;;17.50;29.10;;;;;;4995197;28;20436;-82
2022/05/02 11:50:12;;;;;;;27.37;25.87;;;17.50;29.90;;;;;;4995078;28;20455;-81
2022/05/02 11:52:38;;;;;;;26.43;25.03;;;17.40;29.80;;;;;;4995017;28;20416;-81
2022/05/02 11:55:09;;;;;;;26.33;25.03;;;17.40;29.20;;;;;;5011318;28;20802;-82
2022/05/02 11:58:01;;;;;;;25.77;24.60;;;17.30;29.80;;;;;;4997106;28;20185;-83
2022/05/02 12:00:32;;;;;;;25.93;24.40;;;17.40;30.00;;;;;;4986684;28;20437;-83
2022/05/02 12:03:22;;;;;;;25.93;24.73;;;17.40;30.20;;;;;;5003576;28;20870;-83
2022/05/02 12:06:01;;;;;;;27.00;25.57;;;17.40;30.50;;;;;;4995082;28;20915;-82
2022/05/02 12:08:34;;;;;;;26.77;25.47;;;17.30;29.20;;;;;;4994892;28;20430;-82
2022/05/02 12:11:14;;;;;;;27.03;25.70;;;17.30;30.40;;;;;;4994829;28;20879;-83
2022/05/02 12:13:47;;;;;;;26.27;25.03;;;17.40;29.50;;;;;;5006839;28;20460;-83
2022/05/02 12:16:18;;;;;;;27.27;25.90;;;17.50;29.60;;;;;;5011159;28;20452;-81
2022/05/02 12:18:51;;;;;;;25.97;24.87;;;17.60;29.40;;;;;;5011127;28;20424;-81
2022/05/02 12:21:33;;;;;;;26.63;25.30;;;17.60;28.70;;;;;;5007014;28;20436;-82
2022/05/02 12:24:00;;;;;;;26.23;24.93;;;17.70;29.40;;;;;;5011058;28;20448;-82
2022/05/02 12:26:27;;;;;;;26.80;25.50;;;17.80;28.80;;;;;;5001359;28;20420;-82
2022/05/02 12:29:04;;;;;;;25.27;24.17;;;17.80;27.90;;;;;;5010958;28;20798;-82
2022/05/02 12:31:36;;;;;;;26.60;25.30;;;17.90;28.50;;;;;;5010269;28;20459;-82
2022/05/02 12:34:13;;;;;;;26.50;25.20;;;17.80;27.80;;;;;;5003077;28;20440;-88
2022/05/02 12:36:44;;;;;;;25.67;24.43;;;17.90;27.90;;;;;;4994451;28;20792;-87
2022/05/02 12:39:27;;;;;;;24.67;23.60;;;18.00;27.20;;;;;;5010257;28;20434;-87
2022/05/02 12:42:13;;;;;;;25.00;23.80;;;18.10;27.20;;;;;;5010988;28;20515;-88
2022/05/02 12:45:01;;;;;;;24.90;23.70;;;18.10;27.80;;;;;;4994579;28;20911;-88
2022/05/02 12:47:32;;;;;;;24.87;23.60;;;18.00;26.60;;;;;;4994508;28;20420;-88
2022/05/02 12:50:06;;;;;;;25.33;24.23;;;18.10;27.30;;;;;;4994524;28;20830;-88
2022/05/02 12:52:34;;;;;;;26.10;24.83;;;18.20;27.60;;;;;;4994630;28;20424;-88
2022/05/02 12:55:00;;;;;;;26.67;25.27;;;18.20;27.70;;;;;;4994501;28;20421;-87
2022/05/02 13:00:42;;;;;;;26.47;25.07;;;18.20;28.80;;;;;;5012282;28;20792;-87
2022/05/02 13:03:10;;;;;;;25.40;24.20;;;18.10;28.70;;;;;;5010765;28;20415;-88
2022/05/02 13:05:39;;;;;;;26.53;25.10;;;18.20;28.00;;;;;;5010855;28;20506;-88
2022/05/02 13:08:19;;;;;;;25.77;24.37;;;18.20;29.30;;;;;;5010631;28;20424;-88
2022/05/02 13:10:46;;;;;;;26.43;25.03;;;18.20;28.70;;;;;;5010530;28;20470;-88
2022/05/02 13:13:13;;;;;;;25.83;24.53;;;18.30;29.70;;;;;;5010721;28;20783;-88
2022/05/02 13:15:47;;;;;;;25.30;24.10;;;18.20;28.70;;;;;;5010717;28;20768;-88
2022/05/02 13:18:18;;;;;;;25.67;24.27;;;18.20;28.70;;;;;;5010935;28;20774;-88
2022/05/02 13:21:13;;;;;;;25.33;23.77;;;18.20;27.70;;;;;;5010659;28;20432;-87
2022/05/02 13:23:44;;;;;;;24.90;23.70;;;18.10;27.70;;;;;;4996263;28;20439;-86
2022/05/02 13:26:20;;;;;;;24.10;23.00;;;18.20;26.70;;;;;;4994096;28;20432;-87